createdAt,value
2023-03-21T00:00:12.894Z,65.60
2023-03-21T00:02:40.770Z,66.53
2023-03-21T00:05:15.778Z,66.91
2023-03-21T00:07:44.125Z,66.72
2023-03-21T00:10:18.059Z,66.86
2023-03-21T00:12:55.355Z,68.41
2023-03-21T00:15:30.584Z,66.92
2023-03-21T00:18:11.366Z,67.64
2023-03-21T00:20:40.640Z,67.71
2023-03-21T00:23:08.538Z,67.24
2023-03-21T00:25:36.510Z,67.93
2023-03-21T00:28:08.469Z,66.91
2023-03-21T00:30:36.958Z,67.51
2023-03-21T00:33:19.645Z,67.14
2023-03-21T00:36:06.109Z,67.99
2023-03-21T00:38:35.249Z,67.37
2023-03-21T00:41:18.816Z,66.88
2023-03-21T00:43:55.396Z,67.58
2023-03-21T00:46:25.308Z,66.93
2023-03-21T00:48:55.909Z,66.93
2023-03-21T00:51:27.020Z,67.01
2023-03-21T00:53:56.177Z,67.28
2023-03-21T00:56:27.374Z,66.85
2023-03-21T00:58:55.218Z,67.03
2023-03-21T01:01:23.054Z,68.00
2023-03-21T01:04:04.134Z,68.05
2023-03-21T01:06:34.061Z,69.58
2023-03-21T01:09:01.915Z,69.95
2023-03-21T01:11:30.569Z,71.18
2023-03-21T01:14:14.578Z,71.14
2023-03-21T01:16:46.912Z,70.65
2023-03-21T01:19:24.957Z,71.46
2023-03-21T01:21:56.238Z,71.52
2023-03-21T01:24:25.731Z,71.60
2023-03-21T01:26:53.734Z,73.25
2023-03-21T01:29:21.750Z,73.34
2023-03-21T01:31:49.805Z,72.27
2023-03-21T01:34:17.806Z,72.82
2023-03-21T01:36:46.144Z,72.67
2023-03-21T01:39:20.066Z,71.62
2023-03-21T01:41:50.268Z,72.59
2023-03-21T01:44:21.289Z,72.45
2023-03-21T01:47:07.737Z,72.23
2023-03-21T01:49:40.162Z,71.45
2023-03-21T01:52:33.548Z,72.39
2023-03-21T01:55:06.893Z,71.94
2023-03-21T01:57:55.234Z,71.23
2023-03-21T02:00:31.997Z,71.56
2023-03-21T02:03:26.228Z,72.53
2023-03-21T02:06:13.663Z,71.21
2023-03-21T02:08:44.354Z,71.63
2023-03-21T02:11:17.602Z,71.51
2023-03-21T02:13:45.777Z,71.86
2023-03-21T02:16:21.779Z,72.26
2023-03-21T02:18:56.918Z,71.38
2023-03-21T02:22:06.582Z,71.76
2023-03-21T02:25:22.066Z,72.18
2023-03-21T02:27:56.066Z,71.74
2023-03-21T02:30:52.406Z,72.01
2023-03-21T02:33:42.346Z,72.87
2023-03-21T02:36:19.359Z,72.32
2023-03-21T02:38:56.097Z,72.57
2023-03-21T02:41:39.510Z,72.71
2023-03-21T02:44:11.122Z,73.21
2023-03-21T02:46:51.252Z,73.17
2023-03-21T02:49:30.892Z,73.03
2023-03-21T02:52:05.477Z,73.26
2023-03-21T02:54:48.370Z,73.33
2023-03-21T02:57:20.770Z,73.31
2023-03-21T02:59:56.981Z,73.67
2023-03-21T03:02:33.137Z,74.28
2023-03-21T03:05:02.891Z,73.98
2023-03-21T03:07:41.423Z,73.62
2023-03-21T03:10:22.718Z,73.82
2023-03-21T03:13:00.477Z,73.86
2023-03-21T03:15:38.524Z,73.82
2023-03-21T03:18:12.800Z,74.49
2023-03-21T03:20:47.928Z,74.33
2023-03-21T03:23:22.245Z,74.56
2023-03-21T03:25:54.235Z,74.82
2023-03-21T03:28:24.726Z,74.94
2023-03-21T03:31:08.025Z,75.54
2023-03-21T03:33:45.350Z,76.30
2023-03-21T03:36:30.053Z,76.81
2023-03-21T03:39:00.851Z,76.63
2023-03-21T03:41:50.255Z,77.55
2023-03-21T03:44:18.875Z,78.35
2023-03-21T03:46:57.983Z,78.92
2023-03-21T03:49:27.514Z,78.53
2023-03-21T03:51:59.430Z,78.90
2023-03-21T03:54:34.704Z,78.81
2023-03-21T03:57:05.944Z,78.53
2023-03-21T03:59:35.324Z,78.78
2023-03-21T04:02:18.270Z,79.28
2023-03-21T04:04:46.226Z,79.97
2023-03-21T04:07:15.976Z,80.80
2023-03-21T04:09:45.418Z,80.57
2023-03-21T04:12:18.690Z,80.85
2023-03-21T04:15:11.530Z,80.74
2023-03-21T04:17:45.371Z,80.47
2023-03-21T04:20:23.506Z,79.52
2023-03-21T04:22:58.219Z,80.39
2023-03-21T04:25:33.935Z,80.87
2023-03-21T04:28:05.579Z,80.14
2023-03-21T04:30:43.416Z,80.56
2023-03-21T04:33:20.892Z,80.49
2023-03-21T04:35:56.395Z,80.42
2023-03-21T04:38:30.691Z,80.56
2023-03-21T04:41:02.080Z,80.78
2023-03-21T04:43:32.656Z,80.63
2023-03-21T04:46:00.712Z,80.65
2023-03-21T04:48:28.757Z,80.65
2023-03-21T04:50:57.526Z,80.88
2023-03-21T04:53:25.424Z,80.68
2023-03-21T04:55:55.452Z,81.27
2023-03-21T04:58:24.107Z,80.64
2023-03-21T05:00:53.485Z,80.78
2023-03-21T05:03:21.972Z,81.49
2023-03-21T05:05:50.558Z,81.31
2023-03-21T05:08:19.985Z,82.01
2023-03-21T05:10:48.242Z,81.74
2023-03-21T05:13:16.136Z,81.26
2023-03-21T05:15:44.126Z,81.53
2023-03-21T05:18:13.391Z,82.01
2023-03-21T05:20:58.384Z,81.76
2023-03-21T05:23:31.714Z,81.13
2023-03-21T05:25:59.855Z,81.31
2023-03-21T05:28:47.964Z,81.48
2023-03-21T05:31:16.749Z,82.47
2023-03-21T05:33:48.003Z,82.46
2023-03-21T05:36:19.406Z,82.99
2023-03-21T05:38:47.376Z,83.25
2023-03-21T05:41:19.255Z,83.76
2023-03-21T05:43:47.883Z,83.50
2023-03-21T05:46:17.090Z,83.65
2023-03-21T05:48:47.437Z,83.94
2023-03-21T05:51:17.788Z,82.88
2023-03-21T05:53:47.463Z,83.30
2023-03-21T05:56:17.047Z,83.57
2023-03-21T05:58:54.890Z,83.47
2023-03-21T06:01:24.191Z,83.17
2023-03-21T06:04:01.132Z,83.10
2023-03-21T06:06:30.692Z,83.02
2023-03-21T06:09:01.315Z,82.84
2023-03-21T06:11:32.299Z,82.47
2023-03-21T06:14:18.781Z,82.72
2023-03-21T06:16:53.885Z,83.01
2023-03-21T06:19:23.578Z,81.78
2023-03-21T06:22:06.120Z,82.03
2023-03-21T06:24:36.617Z,81.99
2023-03-21T06:27:04.660Z,82.08
2023-03-21T06:29:47.840Z,81.82
2023-03-21T06:32:16.125Z,82.09
2023-03-21T06:34:47.248Z,81.72
2023-03-21T06:37:16.863Z,81.82
2023-03-21T06:39:44.845Z,81.69
2023-03-21T06:42:12.961Z,80.81
2023-03-21T06:44:41.371Z,81.38
2023-03-21T06:47:13.983Z,81.67
2023-03-21T06:49:44.619Z,81.64
2023-03-21T06:52:15.334Z,82.06
2023-03-21T06:54:44.240Z,82.16
2023-03-21T06:57:13.519Z,82.42
2023-03-21T06:59:42.506Z,82.79
2023-03-21T07:02:15.145Z,82.02
2023-03-21T07:04:49.305Z,82.81
2023-03-21T07:07:25.947Z,82.30
2023-03-21T07:09:53.828Z,82.73
2023-03-21T07:12:23.047Z,82.60
2023-03-21T07:15:11.872Z,82.22
2023-03-21T07:17:41.425Z,82.97
2023-03-21T07:20:12.636Z,83.47
2023-03-21T07:22:42.367Z,84.11
2023-03-21T07:25:11.539Z,83.76
2023-03-21T07:27:41.566Z,84.80
2023-03-21T07:30:10.956Z,85.10
2023-03-21T07:32:41.284Z,85.46
2023-03-21T07:35:12.516Z,86.30
2023-03-21T07:37:41.762Z,86.17
2023-03-21T07:40:12.423Z,86.31
2023-03-21T07:42:41.602Z,86.42
2023-03-21T07:45:15.565Z,86.85
2023-03-21T07:47:44.009Z,86.42
2023-03-21T07:50:12.209Z,86.43
2023-03-21T07:52:40.092Z,86.68
2023-03-21T07:55:10.392Z,86.85
2023-03-21T07:57:38.214Z,85.95
2023-03-21T08:00:07.480Z,87.00
2023-03-21T08:02:41.162Z,87.00
2023-03-21T08:05:11.446Z,86.64
2023-03-21T08:07:39.400Z,86.28
2023-03-21T08:10:11.543Z,85.62
2023-03-21T08:12:39.696Z,85.17
2023-03-21T08:15:08.914Z,85.20
2023-03-21T08:17:38.055Z,85.04
2023-03-21T08:20:08.968Z,86.27
2023-03-21T08:22:37.227Z,86.36
2023-03-21T08:25:07.978Z,85.96
2023-03-21T08:27:37.189Z,85.23
2023-03-21T08:30:05.807Z,85.51
2023-03-21T08:32:33.865Z,84.61
2023-03-21T08:35:02.618Z,85.74
2023-03-21T08:37:31.067Z,85.44
2023-03-21T08:39:59.171Z,85.33
2023-03-21T08:42:27.153Z,85.88
2023-03-21T08:44:56.325Z,86.64
2023-03-21T08:47:24.205Z,87.05
2023-03-21T08:49:52.091Z,87.30
2023-03-21T08:52:19.920Z,87.38
2023-03-21T08:54:48.501Z,87.08
2023-03-21T08:57:16.928Z,87.02
2023-03-21T08:59:44.860Z,87.22
2023-03-21T09:02:15.068Z,86.98
2023-03-21T09:04:43.615Z,87.43
2023-03-21T09:07:12.436Z,87.73
2023-03-21T09:09:41.246Z,87.90
2023-03-21T09:12:09.658Z,87.36
2023-03-21T09:14:37.598Z,87.24
2023-03-21T09:17:05.542Z,86.07
2023-03-21T09:19:35.087Z,86.84
2023-03-21T09:22:03.724Z,87.52
2023-03-21T09:24:32.085Z,87.73
2023-03-21T09:27:00.953Z,87.95
2023-03-21T09:29:29.126Z,87.02
2023-03-21T09:31:57.739Z,87.51
2023-03-21T09:34:26.450Z,86.74
2023-03-21T09:36:56.548Z,87.45
2023-03-21T09:39:24.765Z,87.14
2023-03-21T09:42:06.360Z,86.25
2023-03-21T09:44:45.155Z,86.53
2023-03-21T09:47:20.606Z,86.13
2023-03-21T09:49:51.851Z,85.43
2023-03-21T09:52:25.528Z,86.23
2023-03-21T09:54:53.810Z,86.75
2023-03-21T09:57:28.599Z,85.42
2023-03-21T09:59:57.595Z,85.89
2023-03-21T10:02:38.246Z,85.30
2023-03-21T10:05:14.330Z,85.29
2023-03-21T10:07:48.736Z,85.74
2023-03-21T10:10:18.805Z,83.85
2023-03-21T10:12:47.456Z,84.68
2023-03-21T10:15:20.944Z,83.42
2023-03-21T10:17:53.646Z,83.45
2023-03-21T10:20:24.146Z,82.70
2023-03-21T10:22:54.823Z,81.24
2023-03-21T10:25:27.779Z,82.07
2023-03-21T10:27:55.657Z,80.92
2023-03-21T10:30:30.935Z,80.77
2023-03-21T10:33:02.421Z,80.48
2023-03-21T10:35:32.617Z,81.63
2023-03-21T10:38:02.391Z,82.25
2023-03-21T10:40:30.483Z,81.26
2023-03-21T10:43:01.036Z,81.48
2023-03-21T10:45:29.167Z,81.17
2023-03-21T10:47:58.132Z,80.62
2023-03-21T10:50:30.637Z,80.44
2023-03-21T10:53:02.281Z,79.76
2023-03-21T10:55:31.978Z,79.73
2023-03-21T10:58:02.934Z,78.47
2023-03-21T11:00:35.369Z,79.24
2023-03-21T11:03:03.907Z,78.89
2023-03-21T11:05:36.916Z,78.14
2023-03-21T11:08:08.000Z,77.73
2023-03-21T11:10:51.310Z,78.02
2023-03-21T11:13:21.166Z,78.54
2023-03-21T11:15:54.994Z,78.60
2023-03-21T11:18:24.769Z,78.71
2023-03-21T11:20:54.631Z,78.46
2023-03-21T11:23:27.395Z,77.90
2023-03-21T11:25:55.780Z,77.71
2023-03-21T11:28:25.786Z,78.20
2023-03-21T11:30:55.509Z,78.44
2023-03-21T11:33:24.750Z,78.10
2023-03-21T11:36:00.906Z,77.13
2023-03-21T11:38:32.334Z,76.88
2023-03-21T11:41:02.315Z,77.15
2023-03-21T11:43:32.925Z,76.89
2023-03-21T11:46:06.702Z,77.33
2023-03-21T11:48:39.413Z,76.28
2023-03-21T11:51:14.046Z,75.55
2023-03-21T11:53:47.481Z,75.94
2023-03-21T11:56:24.420Z,76.17
2023-03-21T11:59:03.571Z,76.58
2023-03-21T12:01:39.194Z,76.37
2023-03-21T12:04:22.202Z,76.98
2023-03-21T12:06:55.248Z,75.91
2023-03-21T12:09:35.897Z,75.70
2023-03-21T12:12:32.961Z,75.28
2023-03-21T12:15:12.502Z,75.08
2023-03-21T12:17:47.863Z,74.27
2023-03-21T12:20:24.745Z,75.27
2023-03-21T12:23:01.019Z,75.95
2023-03-21T12:25:33.956Z,75.85
2023-03-21T12:28:08.630Z,75.88
2023-03-21T12:30:46.242Z,75.11
2023-03-21T12:33:21.895Z,76.12
2023-03-21T12:35:56.265Z,76.36
2023-03-21T12:38:27.080Z,76.29
2023-03-21T12:41:18.472Z,76.83
2023-03-21T12:43:48.754Z,77.15
2023-03-21T12:46:20.870Z,77.42
2023-03-21T12:48:51.400Z,76.92
2023-03-21T12:51:20.933Z,76.58
2023-03-21T12:54:12.224Z,75.17
2023-03-21T12:56:48.297Z,75.25
2023-03-21T12:59:24.025Z,75.50
2023-03-21T13:01:53.012Z,75.13
2023-03-21T13:04:42.465Z,74.41
2023-03-21T13:07:13.994Z,75.41
2023-03-21T13:09:42.792Z,75.18
2023-03-21T13:12:22.996Z,75.21
2023-03-21T13:15:04.621Z,74.60
2023-03-21T13:17:37.104Z,74.06
2023-03-21T13:20:11.847Z,73.70
2023-03-21T13:22:39.671Z,72.81
2023-03-21T13:25:16.795Z,72.49
2023-03-21T13:27:52.819Z,72.14
2023-03-21T13:30:22.925Z,73.02
2023-03-21T13:32:51.833Z,72.53
2023-03-21T13:35:27.195Z,72.19
2023-03-21T13:37:58.343Z,72.55
2023-03-21T13:40:28.135Z,72.29
2023-03-21T13:43:00.145Z,72.05
2023-03-21T13:45:30.663Z,72.80
2023-03-21T13:47:59.678Z,72.81
2023-03-21T13:50:35.246Z,72.79
2023-03-21T13:53:20.545Z,72.73
2023-03-21T13:55:59.611Z,72.26
2023-03-21T13:58:35.590Z,72.75
2023-03-21T14:01:16.730Z,72.54
2023-03-21T14:03:46.000Z,72.30
2023-03-21T14:06:14.223Z,72.84
2023-03-21T14:08:45.053Z,72.34
2023-03-21T14:11:15.571Z,72.49
2023-03-21T14:13:51.191Z,72.40
2023-03-21T14:16:20.350Z,71.99
2023-03-21T14:18:55.001Z,73.28
2023-03-21T14:21:25.869Z,75.26
2023-03-21T14:24:00.722Z,76.50
2023-03-21T14:26:31.127Z,77.50
2023-03-21T14:29:00.849Z,78.49
2023-03-21T14:31:28.982Z,78.75
2023-03-21T14:33:58.998Z,78.09
2023-03-21T14:36:29.164Z,77.85
2023-03-21T14:39:00.682Z,77.81
2023-03-21T14:41:30.107Z,77.90
2023-03-21T14:44:22.245Z,77.57
2023-03-21T14:46:50.389Z,77.26
2023-03-21T14:49:25.670Z,78.11
2023-03-21T14:51:55.389Z,76.73
2023-03-21T14:54:23.555Z,76.89
2023-03-21T14:56:54.391Z,76.21
2023-03-21T14:59:27.339Z,75.61
2023-03-21T15:01:55.887Z,75.34
2023-03-21T15:04:23.937Z,75.02
2023-03-21T15:06:54.432Z,74.32
2023-03-21T15:09:24.983Z,74.45
2023-03-21T15:11:54.023Z,74.01
2023-03-21T15:14:27.347Z,74.69
2023-03-21T15:16:55.622Z,73.79
2023-03-21T15:19:28.616Z,73.82
2023-03-21T15:21:59.585Z,74.38
2023-03-21T15:24:30.240Z,74.42
2023-03-21T15:27:01.251Z,74.08
2023-03-21T15:29:30.782Z,73.91
2023-03-21T15:31:59.533Z,73.36
2023-03-21T15:34:30.586Z,73.16
2023-03-21T15:37:00.126Z,73.67
2023-03-21T15:39:29.832Z,74.11
2023-03-21T15:42:02.472Z,74.02
2023-03-21T15:44:32.750Z,74.13
2023-03-21T15:47:00.921Z,74.17
2023-03-21T15:49:31.200Z,74.12
2023-03-21T15:52:07.476Z,74.65
2023-03-21T15:54:39.905Z,74.96
2023-03-21T15:57:20.523Z,74.63
2023-03-21T15:59:50.331Z,74.81
2023-03-21T16:02:20.702Z,74.89
2023-03-21T16:04:59.975Z,74.95
2023-03-21T16:07:28.221Z,74.93
2023-03-21T16:10:00.668Z,74.04
2023-03-21T16:12:28.624Z,74.70
2023-03-21T16:14:57.844Z,74.32
2023-03-21T16:17:29.822Z,75.13
2023-03-21T16:19:57.837Z,74.95
2023-03-21T16:22:25.745Z,74.97
2023-03-21T16:24:53.970Z,74.28
2023-03-21T16:27:22.027Z,74.65
2023-03-21T16:29:50.062Z,74.79
2023-03-21T16:32:20.519Z,74.73
2023-03-21T16:34:48.425Z,75.29
2023-03-21T16:37:16.730Z,75.56
2023-03-21T16:39:44.592Z,75.10
2023-03-21T16:42:13.083Z,75.52
2023-03-21T16:44:41.008Z,75.74
2023-03-21T16:47:15.534Z,75.70
2023-03-21T16:49:44.943Z,75.88
2023-03-21T16:52:13.994Z,75.70
2023-03-21T16:54:42.460Z,76.43
2023-03-21T16:57:21.221Z,76.35
2023-03-21T16:59:49.067Z,75.99
2023-03-21T17:02:17.393Z,75.70
2023-03-21T17:04:46.718Z,76.59
2023-03-21T17:07:15.383Z,76.30
2023-03-21T17:09:43.912Z,76.01
2023-03-21T17:12:13.640Z,76.33
2023-03-21T17:14:41.898Z,76.35
2023-03-21T17:17:12.667Z,76.28
2023-03-21T17:19:40.864Z,76.36
2023-03-21T17:22:12.561Z,76.06
2023-03-21T17:24:41.885Z,76.63
2023-03-21T17:27:12.837Z,76.46
2023-03-21T17:29:40.895Z,76.72
2023-03-21T17:32:09.198Z,76.72
2023-03-21T17:34:37.066Z,76.43
2023-03-21T17:37:04.917Z,77.22
2023-03-21T17:39:34.144Z,77.05
2023-03-21T17:42:02.362Z,77.31
2023-03-21T17:44:30.219Z,77.03
2023-03-21T17:46:58.119Z,77.08
2023-03-21T17:49:26.466Z,77.52
2023-03-21T17:51:54.326Z,77.56
2023-03-21T17:54:22.209Z,77.94
2023-03-21T17:56:52.780Z,77.25
2023-03-21T17:59:20.671Z,77.65
2023-03-21T18:01:48.659Z,77.53
2023-03-21T18:04:16.670Z,77.55
2023-03-21T18:06:44.876Z,76.96
2023-03-21T18:09:13.212Z,77.44
2023-03-21T18:11:41.757Z,77.16
2023-03-21T18:14:17.647Z,77.66
2023-03-21T18:16:46.400Z,77.22
2023-03-21T18:19:14.484Z,77.67
2023-03-21T18:21:44.662Z,77.59
2023-03-21T18:24:13.110Z,77.47
2023-03-21T18:26:41.482Z,77.40
2023-03-21T18:32:06.256Z,77.53
2023-03-21T18:34:36.443Z,77.82
2023-03-21T18:37:04.714Z,77.76
2023-03-21T18:39:32.985Z,77.83
2023-03-21T18:42:02.575Z,77.85
2023-03-21T18:44:37.271Z,78.02
2023-03-21T18:47:06.623Z,77.86
2023-03-21T18:52:22.720Z,78.32
2023-03-21T18:54:50.674Z,78.16
2023-03-21T18:57:37.442Z,78.28
2023-03-21T19:00:13.262Z,78.55
2023-03-21T19:02:46.433Z,78.52
2023-03-21T19:05:15.605Z,78.08
2023-03-21T19:07:43.584Z,78.42
2023-03-21T19:10:18.296Z,78.07
2023-03-21T19:12:46.921Z,78.02
2023-03-21T19:15:18.644Z,78.48
2023-03-21T19:18:26.459Z,78.51
2023-03-21T19:20:35.125Z,78.77
2023-03-21T19:23:03.275Z,78.80
2023-03-21T19:25:31.159Z,78.58
2023-03-21T19:27:58.976Z,78.66
2023-03-21T19:30:28.525Z,79.57
2023-03-21T19:32:56.458Z,80.00
2023-03-21T19:35:25.130Z,80.29
2023-03-21T19:37:52.964Z,80.67
2023-03-21T19:40:21.375Z,80.56
2023-03-21T19:42:49.297Z,80.71
2023-03-21T19:45:17.277Z,81.04
2023-03-21T19:47:46.776Z,81.79
2023-03-21T19:53:02.593Z,83.55
2023-03-21T19:55:30.806Z,84.36
2023-03-21T19:57:59.136Z,84.55
2023-03-21T20:00:27.329Z,84.93
2023-03-21T20:02:56.766Z,85.38
2023-03-21T20:05:25.500Z,85.21
2023-03-21T20:07:55.352Z,86.36
2023-03-21T20:10:23.353Z,85.91
2023-03-21T20:12:51.307Z,86.62
2023-03-21T20:15:21.681Z,87.04
2023-03-21T20:17:50.330Z,87.20
2023-03-21T20:20:20.233Z,87.73
2023-03-21T20:25:40.573Z,87.62
2023-03-21T20:28:24.256Z,88.24
2023-03-21T20:30:56.777Z,88.71
2023-03-21T20:33:25.126Z,88.20
2023-03-21T20:38:47.500Z,89.14
2023-03-21T20:41:15.477Z,89.43
2023-03-21T20:46:31.176Z,90.17
2023-03-21T20:48:59.782Z,91.03
2023-03-21T20:54:17.835Z,91.37
2023-03-21T20:56:46.009Z,91.32
2023-03-21T20:59:20.843Z,91.51
2023-03-21T21:01:51.975Z,92.60
2023-03-21T21:04:20.352Z,92.60
2023-03-21T21:06:49.687Z,93.07
2023-03-21T21:09:17.642Z,93.46
2023-03-21T21:14:35.389Z,93.48
2023-03-21T21:17:21.005Z,93.99
2023-03-21T21:19:51.449Z,94.51
2023-03-21T21:22:20.736Z,94.33
2023-03-21T21:24:48.607Z,94.89
2023-03-21T21:27:16.551Z,94.68
2023-03-21T21:29:47.515Z,95.09
2023-03-21T21:32:16.692Z,94.52
2023-03-21T21:34:44.609Z,95.25
2023-03-21T21:37:12.484Z,94.89
2023-03-21T21:39:41.974Z,95.38
2023-03-21T21:42:09.892Z,95.29
2023-03-21T21:44:39.922Z,95.59
2023-03-21T21:47:09.042Z,95.88
2023-03-21T21:49:37.198Z,96.20
2023-03-21T21:52:05.905Z,96.67
2023-03-21T21:54:35.008Z,96.24
2023-03-21T21:57:05.835Z,96.12
2023-03-21T21:59:33.946Z,96.47
2023-03-21T22:02:02.040Z,96.21
2023-03-21T22:04:30.028Z,95.88
2023-03-21T22:06:58.343Z,96.39
2023-03-21T22:09:26.221Z,95.91
2023-03-21T22:11:55.310Z,95.29
2023-03-21T22:14:24.562Z,96.42
2023-03-21T22:16:52.722Z,96.12
2023-03-21T22:19:20.616Z,96.21
2023-03-21T22:21:48.538Z,96.67
2023-03-21T22:24:17.031Z,96.65
2023-03-21T22:26:45.242Z,96.69
2023-03-21T22:29:13.574Z,96.26
2023-03-21T22:31:43.014Z,95.86
2023-03-21T22:34:10.902Z,95.79
2023-03-21T22:36:38.826Z,95.54
2023-03-21T22:39:06.630Z,95.98
2023-03-21T22:41:34.606Z,96.15
2023-03-21T22:44:02.433Z,95.76
2023-03-21T22:46:30.418Z,95.85
2023-03-21T22:48:59.726Z,96.17
2023-03-21T22:51:27.626Z,96.58
2023-03-21T22:53:55.428Z,96.62
2023-03-21T22:56:23.275Z,96.19
2023-03-21T22:58:51.111Z,96.46
2023-03-21T23:01:18.959Z,96.60
2023-03-21T23:03:46.874Z,96.71
2023-03-21T23:06:16.124Z,96.51
2023-03-21T23:08:44.075Z,97.04
2023-03-21T23:11:12.821Z,96.39
2023-03-21T23:13:42.163Z,96.44
2023-03-21T23:16:10.590Z,95.68
2023-03-21T23:18:38.717Z,96.36
2023-03-21T23:21:13.032Z,95.85
2023-03-21T23:23:43.828Z,95.21
2023-03-21T23:26:12.282Z,95.24
2023-03-21T23:28:40.218Z,95.92
2023-03-21T23:31:09.658Z,95.62
2023-03-21T23:33:37.739Z,94.77
2023-03-21T23:36:06.431Z,95.10
2023-03-21T23:38:34.465Z,94.67
2023-03-21T23:41:07.772Z,94.21
2023-03-21T23:43:36.106Z,94.68
2023-03-21T23:46:04.665Z,94.77
2023-03-21T23:48:32.848Z,94.86
2023-03-21T23:51:00.928Z,94.97
2023-03-21T23:53:28.813Z,95.77
2023-03-21T23:55:58.516Z,95.36
2023-03-21T23:58:29.275Z,95.16
